createdAt,value
2023-03-28T00:01:54.549Z,139.53
2023-03-28T00:05:01.393Z,143.86
2023-03-28T00:08:08.352Z,147.36
2023-03-28T00:11:20.311Z,155.25
2023-03-28T00:14:26.806Z,149.81
2023-03-28T00:17:36.251Z,148.75
2023-03-28T00:20:44.315Z,150.85
2023-03-28T00:23:52.517Z,148.22
2023-03-28T00:27:13.594Z,145.69
2023-03-28T00:30:20.595Z,149.59
2023-03-28T00:33:38.060Z,154.08
2023-03-28T00:36:51.022Z,158.69
2023-03-28T00:39:59.172Z,163.23
2023-03-28T00:43:06.305Z,165.87
2023-03-28T00:46:33.095Z,164.95
2023-03-28T00:49:42.733Z,172.42
2023-03-28T00:52:59.881Z,189.74
2023-03-28T00:56:27.334Z,201.25
2023-03-28T00:59:38.038Z,204.48
2023-03-28T01:02:51.594Z,188.34
2023-03-28T01:06:08.856Z,177.59
2023-03-28T01:09:34.101Z,154.39
2023-03-28T01:12:47.484Z,155.54
2023-03-28T01:15:59.792Z,173.08
2023-03-28T01:19:08.518Z,198.72
2023-03-28T01:23:22.778Z,188.00
2023-03-28T01:26:57.931Z,172.26
2023-03-28T01:30:45.481Z,171.18
2023-03-28T01:34:51.852Z,167.14
2023-03-28T01:38:16.053Z,163.61
2023-03-28T01:41:40.266Z,147.53
2023-03-28T01:45:05.218Z,139.36
2023-03-28T01:48:33.416Z,140.30
2023-03-28T01:51:58.566Z,135.32
2023-03-28T01:55:21.516Z,139.06
2023-03-28T01:58:43.848Z,135.51
2023-03-28T02:02:09.813Z,131.18
2023-03-28T02:05:23.896Z,150.16
2023-03-28T02:08:39.821Z,212.04
2023-03-28T02:12:34.414Z,173.99
2023-03-28T02:15:56.686Z,140.39
2023-03-28T02:19:28.297Z,126.93
2023-03-28T02:22:59.841Z,127.14
2023-03-28T02:26:28.935Z,126.68
2023-03-28T02:29:58.521Z,122.50
2023-03-28T02:33:41.823Z,134.58
2023-03-28T02:37:07.175Z,117.26
2023-03-28T02:40:41.341Z,110.47
2023-03-28T02:44:24.409Z,114.65
2023-03-28T02:47:48.111Z,120.32
2023-03-28T02:51:17.960Z,118.99
2023-03-28T02:54:39.392Z,117.84
2023-03-28T02:58:26.668Z,115.88
2023-03-28T03:01:34.428Z,114.10
2023-03-28T03:04:44.707Z,123.24
2023-03-28T03:07:52.463Z,122.87
2023-03-28T03:11:06.143Z,119.21
2023-03-28T03:14:17.642Z,115.27
2023-03-28T03:17:27.400Z,116.06
2023-03-28T03:20:36.465Z,113.67
2023-03-28T03:23:43.239Z,114.75
2023-03-28T03:26:49.249Z,113.39
2023-03-28T03:29:56.714Z,105.79
2023-03-28T03:33:16.832Z,99.45
2023-03-28T03:36:43.273Z,107.57
2023-03-28T03:39:50.100Z,113.74
2023-03-28T03:43:04.395Z,97.57
2023-03-28T03:46:12.391Z,96.67
2023-03-28T03:49:19.452Z,94.25
2023-03-28T03:52:28.648Z,95.39
2023-03-28T03:55:36.525Z,104.41
2023-03-28T03:58:42.892Z,133.49
2023-03-28T04:01:49.928Z,146.67
2023-03-28T04:05:14.575Z,114.19
2023-03-28T04:08:49.047Z,100.20
2023-03-28T04:12:04.901Z,106.16
2023-03-28T04:15:16.412Z,131.15
2023-03-28T04:18:55.620Z,108.97
2023-03-28T04:22:04.647Z,101.39
2023-03-28T04:25:14.425Z,101.85
2023-03-28T04:28:21.306Z,107.69
2023-03-28T04:31:56.383Z,96.12
2023-03-28T04:35:08.185Z,97.74
2023-03-28T04:38:20.732Z,92.15
2023-03-28T04:41:49.070Z,97.97
2023-03-28T04:44:55.076Z,88.79
2023-03-28T04:48:02.611Z,85.03
2023-03-28T04:51:27.134Z,78.42
2023-03-28T04:54:55.785Z,72.48
2023-03-28T04:58:14.800Z,74.84
2023-03-28T05:01:22.966Z,71.00
2023-03-28T05:04:29.025Z,69.13
2023-03-28T05:07:37.729Z,70.54
2023-03-28T05:10:47.380Z,68.97
2023-03-28T05:14:08.977Z,80.67
2023-03-28T05:17:22.023Z,81.32
2023-03-28T05:21:03.045Z,88.00
2023-03-28T05:24:10.513Z,92.48
2023-03-28T05:27:17.715Z,95.53
2023-03-28T05:30:26.850Z,104.88
2023-03-28T05:33:36.169Z,116.17
2023-03-28T05:36:43.412Z,167.30
2023-03-28T05:40:00.171Z,235.52
2023-03-28T05:43:06.717Z,209.13
2023-03-28T05:46:18.374Z,124.68
2023-03-28T05:49:29.260Z,108.73
2023-03-28T05:52:36.102Z,137.42
2023-03-28T05:55:45.133Z,148.75
2023-03-28T05:58:51.951Z,130.66
2023-03-28T06:02:03.739Z,103.42
2023-03-28T06:05:11.947Z,101.20
2023-03-28T06:08:18.520Z,143.04
2023-03-28T06:11:25.529Z,111.72
2023-03-28T06:14:51.765Z,112.45
2023-03-28T06:18:10.873Z,104.52
2023-03-28T06:21:23.074Z,108.49
2023-03-28T06:24:29.993Z,104.52
2023-03-28T06:27:36.595Z,108.22
2023-03-28T06:30:43.627Z,105.19
2023-03-28T06:33:52.292Z,102.50
2023-03-28T06:37:02.101Z,100.60
2023-03-28T06:40:25.273Z,85.48
2023-03-28T06:43:35.420Z,87.59
2023-03-28T06:46:53.775Z,135.49
2023-03-28T06:50:07.787Z,86.53
2023-03-28T06:53:32.927Z,86.19
2023-03-28T06:56:46.216Z,65.28
2023-03-28T06:59:52.776Z,83.04
2023-03-28T07:03:06.092Z,141.40
2023-03-28T07:06:15.654Z,149.64
2023-03-28T07:09:23.876Z,124.02
2023-03-28T07:12:36.257Z,84.30
2023-03-28T07:15:49.449Z,91.72
2023-03-28T07:18:55.714Z,122.91
2023-03-28T07:22:27.635Z,117.61
2023-03-28T07:25:33.619Z,104.33
2023-03-28T07:28:41.327Z,99.86
2023-03-28T07:31:53.481Z,105.11
2023-03-28T07:35:00.392Z,91.07
2023-03-28T07:38:21.336Z,94.23
2023-03-28T07:41:31.121Z,108.85
2023-03-28T07:44:46.862Z,98.53
2023-03-28T07:47:55.199Z,116.29
2023-03-28T07:51:02.456Z,199.37
2023-03-28T07:54:18.048Z,92.88
2023-03-28T07:57:25.982Z,115.48
2023-03-28T08:00:51.488Z,117.35
2023-03-28T08:04:19.754Z,135.04
2023-03-28T08:07:42.840Z,141.48
2023-03-28T08:10:53.406Z,155.90
2023-03-28T08:14:00.296Z,107.90
2023-03-28T08:17:10.089Z,141.12
2023-03-28T08:20:17.419Z,194.32
2023-03-28T08:23:57.269Z,202.13
2023-03-28T08:27:39.097Z,145.73
2023-03-28T08:30:51.459Z,157.37
2023-03-28T08:33:59.890Z,102.27
2023-03-28T08:37:15.636Z,175.55
2023-03-28T08:40:32.483Z,108.28
2023-03-28T08:44:17.289Z,172.52
2023-03-28T08:47:35.562Z,231.50
2023-03-28T08:50:49.531Z,174.90
2023-03-28T08:54:17.076Z,180.17
2023-03-28T08:57:30.870Z,160.61
2023-03-28T09:00:49.612Z,116.96
2023-03-28T09:03:56.281Z,107.72
2023-03-28T09:07:28.517Z,113.72
2023-03-28T09:10:48.149Z,83.95
2023-03-28T09:14:27.056Z,95.90
2023-03-28T09:17:58.433Z,76.41
2023-03-28T09:21:19.993Z,56.32
2023-03-28T09:24:51.109Z,108.69
2023-03-28T09:28:16.168Z,107.46
2023-03-28T09:31:37.905Z,92.98
2023-03-28T09:34:53.679Z,91.64
2023-03-28T09:38:16.335Z,140.67
2023-03-28T09:41:32.428Z,111.63
2023-03-28T09:45:30.866Z,84.63
2023-03-28T09:48:43.369Z,102.12
2023-03-28T09:52:00.131Z,90.95
2023-03-28T09:55:31.172Z,86.06
2023-03-28T09:58:58.338Z,82.96
2023-03-28T10:02:33.170Z,89.21
2023-03-28T10:05:45.471Z,77.29
2023-03-28T10:09:18.908Z,105.77
2023-03-28T10:12:43.992Z,75.06
2023-03-28T10:15:52.381Z,75.29
2023-03-28T10:19:40.220Z,34.91
2023-03-28T10:22:59.216Z,52.09
2023-03-28T10:26:25.069Z,55.63
2023-03-28T10:29:32.333Z,48.02
2023-03-28T10:32:38.643Z,45.95
2023-03-28T10:36:13.026Z,43.32
2023-03-28T10:39:29.132Z,56.45
2023-03-28T10:43:01.274Z,66.53
2023-03-28T10:46:24.093Z,46.78
2023-03-28T10:49:58.851Z,50.23
2023-03-28T10:53:29.379Z,66.87
2023-03-28T10:57:08.293Z,92.76
2023-03-28T11:00:53.295Z,87.84
2023-03-28T11:04:40.210Z,94.65
2023-03-28T11:08:01.842Z,69.97
2023-03-28T11:11:58.029Z,47.55
2023-03-28T11:15:16.321Z,42.06
2023-03-28T11:19:12.195Z,65.80
2023-03-28T11:23:03.040Z,101.00
2023-03-28T11:26:42.139Z,99.81
2023-03-28T11:30:21.805Z,68.19
2023-03-28T11:34:07.318Z,80.82
2023-03-28T11:37:24.215Z,79.60
2023-03-28T11:40:52.611Z,61.91
2023-03-28T11:44:21.642Z,71.69
2023-03-28T11:47:41.363Z,95.72
2023-03-28T11:51:22.541Z,82.01
2023-03-28T11:54:49.245Z,94.62
2023-03-28T11:58:20.546Z,81.06
2023-03-28T12:01:42.429Z,94.16
2023-03-28T12:05:00.881Z,54.62
2023-03-28T12:08:20.787Z,50.07
2023-03-28T12:11:49.312Z,48.28
2023-03-28T12:15:06.300Z,52.00
2023-03-28T12:18:36.173Z,66.65
2023-03-28T12:21:56.274Z,79.01
2023-03-28T12:25:37.728Z,179.59
2023-03-28T12:28:54.546Z,183.97
2023-03-28T12:32:36.401Z,103.09
2023-03-28T12:35:57.842Z,138.96
2023-03-28T12:39:35.109Z,91.59
2023-03-28T12:43:09.253Z,55.19
2023-03-28T12:46:24.400Z,83.26
2023-03-28T12:49:46.550Z,56.33
2023-03-28T12:52:55.185Z,50.24
2023-03-28T12:56:25.879Z,52.07
2023-03-28T13:00:17.721Z,55.78
2023-03-28T13:04:08.499Z,59.04
2023-03-28T13:07:53.944Z,79.65
2023-03-28T13:11:16.191Z,64.99
2023-03-28T13:14:38.532Z,91.12
2023-03-28T13:17:51.979Z,68.13
2023-03-28T13:20:59.937Z,91.47
2023-03-28T13:24:34.893Z,67.40
2023-03-28T13:27:41.413Z,74.74
2023-03-28T13:30:50.271Z,69.56
2023-03-28T13:34:03.066Z,76.23
2023-03-28T13:37:24.756Z,78.39
2023-03-28T13:40:51.605Z,117.03
2023-03-28T13:44:09.647Z,111.63
2023-03-28T13:47:35.918Z,84.41
2023-03-28T13:50:48.787Z,99.46
2023-03-28T13:53:54.891Z,80.54
2023-03-28T13:57:08.717Z,137.07
2023-03-28T14:00:21.711Z,129.55
2023-03-28T14:03:29.401Z,87.08
2023-03-28T14:06:45.437Z,122.00
2023-03-28T14:09:53.914Z,102.18
2023-03-28T14:13:06.572Z,127.67
2023-03-28T14:16:15.968Z,166.14
2023-03-28T14:19:33.367Z,212.89
2023-03-28T14:22:56.999Z,182.60
2023-03-28T14:26:20.079Z,197.04
2023-03-28T14:29:29.450Z,185.80
2023-03-28T14:32:41.880Z,142.26
2023-03-28T14:36:05.069Z,109.02
2023-03-28T14:39:21.968Z,130.81
2023-03-28T14:42:33.362Z,118.10
2023-03-28T14:45:48.130Z,149.17
2023-03-28T14:48:57.819Z,136.83
2023-03-28T14:52:07.222Z,128.87
2023-03-28T14:55:23.987Z,101.31
2023-03-28T14:58:31.829Z,295.00
2023-03-28T15:01:42.599Z,286.83
2023-03-28T15:04:53.402Z,178.90
2023-03-28T15:08:05.328Z,276.12
2023-03-28T15:11:25.932Z,253.76
2023-03-28T15:14:45.696Z,221.55
2023-03-28T15:17:58.790Z,86.73
2023-03-28T15:21:11.014Z,118.28
2023-03-28T15:24:22.425Z,65.28
2023-03-28T15:27:36.715Z,89.64
2023-03-28T15:30:48.617Z,79.77
2023-03-28T15:33:57.960Z,117.60
2023-03-28T15:37:09.282Z,77.93
2023-03-28T15:40:29.274Z,87.10
2023-03-28T15:43:59.067Z,109.84
2023-03-28T15:47:13.422Z,86.11
2023-03-28T15:50:33.471Z,91.32
2023-03-28T15:53:40.323Z,103.34
2023-03-28T15:56:51.703Z,131.53
2023-03-28T16:00:02.149Z,98.42
2023-03-28T16:03:37.355Z,107.49
2023-03-28T16:06:47.643Z,110.98
2023-03-28T16:09:53.812Z,95.43
2023-03-28T16:13:00.596Z,94.45
2023-03-28T16:16:38.889Z,116.09
2023-03-28T16:19:59.401Z,164.23
2023-03-28T16:23:07.273Z,180.08
2023-03-28T16:26:15.207Z,168.17
2023-03-28T16:29:21.291Z,194.94
2023-03-28T16:32:31.039Z,177.79
2023-03-28T16:35:37.693Z,158.58
2023-03-28T16:38:45.362Z,195.00
2023-03-28T16:41:51.583Z,189.84
2023-03-28T16:44:59.251Z,195.39
2023-03-28T16:48:08.647Z,168.86
2023-03-28T16:51:15.604Z,176.46
2023-03-28T16:54:21.721Z,127.48
2023-03-28T16:57:31.954Z,139.91
2023-03-28T17:00:38.695Z,148.21
2023-03-28T17:03:49.442Z,132.36
2023-03-28T17:06:56.090Z,132.89
2023-03-28T17:10:02.999Z,113.36
2023-03-28T17:13:09.727Z,154.27
2023-03-28T17:16:17.564Z,137.78
2023-03-28T17:19:26.864Z,152.90
2023-03-28T17:22:33.770Z,227.07
2023-03-28T17:25:53.844Z,173.02
2023-03-28T17:29:01.613Z,112.05
2023-03-28T17:32:09.034Z,148.65
2023-03-28T17:35:19.573Z,133.74
2023-03-28T17:38:26.003Z,121.48
2023-03-28T17:41:33.040Z,142.84
2023-03-28T17:44:39.204Z,146.35
2023-03-28T17:47:46.201Z,150.36
2023-03-28T17:50:58.475Z,149.77
2023-03-28T17:54:07.170Z,180.60
2023-03-28T17:57:13.321Z,144.74
2023-03-28T18:00:22.601Z,138.62
2023-03-28T18:03:28.963Z,133.00
2023-03-28T18:06:51.751Z,116.08
2023-03-28T18:09:57.986Z,88.64
2023-03-28T18:13:04.967Z,82.86
2023-03-28T18:16:15.264Z,101.58
2023-03-28T18:19:22.454Z,96.55
2023-03-28T18:22:31.148Z,80.46
2023-03-28T18:25:39.163Z,82.54
2023-03-28T18:28:45.567Z,74.84
2023-03-28T18:31:52.582Z,71.96
2023-03-28T18:34:58.787Z,83.26
2023-03-28T18:38:08.560Z,82.17
2023-03-28T18:41:22.346Z,120.97
2023-03-28T18:44:36.193Z,102.25
2023-03-28T18:47:43.085Z,116.80
2023-03-28T18:50:56.341Z,119.63
2023-03-28T18:54:05.165Z,96.99
2023-03-28T18:57:12.156Z,105.37
2023-03-28T19:00:28.320Z,92.22
2023-03-28T19:03:40.603Z,88.19
2023-03-28T19:06:46.861Z,112.04
2023-03-28T19:09:56.870Z,139.91
2023-03-28T19:13:23.322Z,118.59
2023-03-28T19:16:52.272Z,142.42
2023-03-28T19:20:05.116Z,171.92
2023-03-28T19:23:12.199Z,115.32
2023-03-28T19:26:22.587Z,125.96
2023-03-28T19:29:30.431Z,157.41
2023-03-28T19:32:36.685Z,141.15
2023-03-28T19:35:44.440Z,108.07
2023-03-28T19:38:50.664Z,149.20
2023-03-28T19:42:00.618Z,149.04
2023-03-28T19:45:07.671Z,130.19
2023-03-28T19:48:18.068Z,114.13
2023-03-28T19:51:24.178Z,153.83
2023-03-28T19:54:31.135Z,159.04
2023-03-28T19:57:39.855Z,197.07
2023-03-28T20:00:46.761Z,229.02
2023-03-28T20:03:53.507Z,241.94
2023-03-28T20:07:01.859Z,277.65
2023-03-28T20:10:10.559Z,216.87
2023-03-28T20:13:20.933Z,346.52
2023-03-28T20:16:41.532Z,345.12
2023-03-28T20:20:01.251Z,284.62
2023-03-28T20:23:12.277Z,262.56
2023-03-28T20:26:28.696Z,284.38
2023-03-28T20:29:43.926Z,254.62
2023-03-28T20:32:57.180Z,179.61
2023-03-28T20:36:09.391Z,177.73
2023-03-28T20:39:19.416Z,160.85
2023-03-28T20:42:31.008Z,181.10
2023-03-28T20:45:46.841Z,178.40
2023-03-28T20:48:57.682Z,186.04
2023-03-28T20:52:08.518Z,196.04
2023-03-28T20:55:25.565Z,177.57
2023-03-28T20:58:41.041Z,146.96
2023-03-28T21:01:52.357Z,132.64
2023-03-28T21:05:05.339Z,134.87
2023-03-28T21:08:13.702Z,144.53
2023-03-28T21:11:26.589Z,153.49
2023-03-28T21:14:32.620Z,154.26
2023-03-28T21:17:46.375Z,161.16
2023-03-28T21:20:53.846Z,162.35
2023-03-28T21:24:01.279Z,155.33
2023-03-28T21:27:07.756Z,151.25
2023-03-28T21:30:15.356Z,143.18
2023-03-28T21:33:30.382Z,134.81
2023-03-28T21:36:37.211Z,148.56
2023-03-28T21:39:43.574Z,165.04
2023-03-28T21:43:03.358Z,177.46
2023-03-28T21:46:11.709Z,166.58
2023-03-28T21:49:21.432Z,143.45
2023-03-28T21:52:27.494Z,130.42
2023-03-28T21:55:34.954Z,110.37
2023-03-28T21:58:41.230Z,104.42
2023-03-28T22:01:57.391Z,106.61
2023-03-28T22:05:29.364Z,114.10
2023-03-28T22:08:36.967Z,122.76
2023-03-28T22:11:42.996Z,126.35
2023-03-28T22:14:49.800Z,133.58
2023-03-28T22:17:58.459Z,136.79
2023-03-28T22:21:09.318Z,135.63
2023-03-28T22:24:15.378Z,129.53
2023-03-28T22:27:22.831Z,130.50
2023-03-28T22:30:28.783Z,136.12
2023-03-28T22:33:36.061Z,137.54
2023-03-28T22:36:44.719Z,138.14
2023-03-28T22:39:51.955Z,133.55
2023-03-28T22:42:59.577Z,130.31
2023-03-28T22:46:07.377Z,133.74
2023-03-28T22:49:22.278Z,136.49
2023-03-28T22:52:32.110Z,132.50
2023-03-28T22:55:38.564Z,137.56
2023-03-28T22:58:45.399Z,146.41
2023-03-28T23:01:51.718Z,151.14
2023-03-28T23:04:58.971Z,166.25
2023-03-28T23:08:08.565Z,206.91
2023-03-28T23:11:15.363Z,242.70
2023-03-28T23:14:22.394Z,258.01
2023-03-28T23:17:29.723Z,257.64
2023-03-28T23:20:35.989Z,264.59
2023-03-28T23:23:46.869Z,272.18
2023-03-28T23:26:52.932Z,261.61
2023-03-28T23:29:59.834Z,263.24
2023-03-28T23:33:05.900Z,272.73
2023-03-28T23:36:14.385Z,250.97
2023-03-28T23:39:23.168Z,240.43
2023-03-28T23:42:30.201Z,215.10
2023-03-28T23:45:36.279Z,191.74
2023-03-28T23:48:46.364Z,168.62
2023-03-28T23:51:56.513Z,165.48
2023-03-28T23:55:08.196Z,152.35
2023-03-28T23:58:14.142Z,149.51
